sensor_id;sensor_type;location;lat;lon;timestamp;pressure;altitude;pressure_sealevel;temperature;humidity
67931;BME280;63902;52.000;5.954;2023-05-02T00:00:49;101550.13;;;10.11;85.11
67931;BME280;63902;52.000;5.954;2023-05-02T00:01:49;101545.75;;;10.11;85.18
67931;BME280;63902;52.000;5.954;2023-05-02T00:02:51;101531.00;;;9.99;85.05
67931;BME280;63902;52.000;5.954;2023-05-02T00:03:52;101549.28;;;10.10;85.25
67931;BME280;63902;52.000;5.954;2023-05-02T00:04:52;101531.75;;;10.04;84.91
67931;BME280;63902;52.000;5.954;2023-05-02T00:05:53;101551.94;;;10.10;84.38
67931;BME280;63902;52.000;5.954;2023-05-02T00:06:53;101537.84;;;10.08;83.86
67931;BME280;63902;52.000;5.954;2023-05-02T00:07:54;101543.94;;;10.12;83.93
67931;BME280;63902;52.000;5.954;2023-05-02T00:08:54;101537.72;;;10.13;86.29
67931;BME280;63902;52.000;5.954;2023-05-02T00:09:55;101540.38;;;10.13;84.70
67931;BME280;63902;52.000;5.954;2023-05-02T00:10:55;101538.69;;;10.10;84.35
67931;BME280;63902;52.000;5.954;2023-05-02T00:11:56;101543.09;;;10.11;86.30
67931;BME280;63902;52.000;5.954;2023-05-02T00:12:56;101547.47;;;10.12;84.68
67931;BME280;63902;52.000;5.954;2023-05-02T00:13:56;101549.25;;;10.12;84.67
67931;BME280;63902;52.000;5.954;2023-05-02T00:14:57;101557.22;;;10.12;84.90
67931;BME280;63902;52.000;5.954;2023-05-02T00:15:57;101554.56;;;10.12;86.93
67931;BME280;63902;52.000;5.954;2023-05-02T00:16:58;101550.13;;;10.11;85.55
67931;BME280;63902;52.000;5.954;2023-05-02T00:18:00;101549.28;;;10.10;86.37
67931;BME280;63902;52.000;5.954;2023-05-02T00:19:00;101545.75;;;10.09;85.21
67931;BME280;63902;52.000;5.954;2023-05-02T00:20:01;101542.28;;;10.07;86.94
67931;BME280;63902;52.000;5.954;2023-05-02T00:21:01;101550.28;;;10.06;86.26
67931;BME280;63902;52.000;5.954;2023-05-02T00:22:02;101544.13;;;10.05;84.99
67931;BME280;63902;52.000;5.954;2023-05-02T00:23:02;101554.72;;;10.05;86.47
67931;BME280;63902;52.000;5.954;2023-05-02T00:24:03;101553.84;;;10.05;85.30
67931;BME280;63902;52.000;5.954;2023-05-02T00:25:05;101562.69;;;10.05;85.66
67931;BME280;63902;52.000;5.954;2023-05-02T00:26:07;101545.00;;;10.04;85.33
67931;BME280;63902;52.000;5.954;2023-05-02T00:27:08;101555.63;;;10.04;85.59
67931;BME280;63902;52.000;5.954;2023-05-02T00:28:08;101555.69;;;10.03;85.39
67931;BME280;63902;52.000;5.954;2023-05-02T00:29:09;101558.31;;;10.03;85.76
67931;BME280;63902;52.000;5.954;2023-05-02T00:30:10;101555.69;;;10.01;85.55
67931;BME280;63902;52.000;5.954;2023-05-02T00:31:10;101559.28;;;10.00;84.67
67931;BME280;63902;52.000;5.954;2023-05-02T00:32:11;101554.00;;;9.99;85.75
67931;BME280;63902;52.000;5.954;2023-05-02T00:33:13;101558.41;;;10.00;85.50
67931;BME280;63902;52.000;5.954;2023-05-02T00:34:13;101554.94;;;9.96;85.62
67931;BME280;63902;52.000;5.954;2023-05-02T00:35:14;101562.00;;;9.97;86.43
67931;BME280;63902;52.000;5.954;2023-05-02T00:36:15;101560.25;;;9.96;85.88
67931;BME280;63902;52.000;5.954;2023-05-02T00:37:15;101562.09;;;9.94;85.25
67931;BME280;63902;52.000;5.954;2023-05-02T00:38:16;101543.78;;;9.85;85.35
67931;BME280;63902;52.000;5.954;2023-05-02T00:39:16;101560.34;;;9.93;85.48
67931;BME280;63902;52.000;5.954;2023-05-02T00:40:17;101543.91;;;9.80;85.79
67931;BME280;63902;52.000;5.954;2023-05-02T00:41:17;101566.56;;;9.92;85.84
67931;BME280;63902;52.000;5.954;2023-05-02T00:42:18;101563.09;;;9.89;86.43
67931;BME280;63902;52.000;5.954;2023-05-02T00:43:18;101564.84;;;9.90;87.18
67931;BME280;63902;52.000;5.954;2023-05-02T00:44:19;101554.38;;;9.85;86.82
67931;BME280;63902;52.000;5.954;2023-05-02T00:45:19;101579.00;;;9.89;85.35
67931;BME280;63902;52.000;5.954;2023-05-02T00:46:20;101566.66;;;9.89;85.58
67931;BME280;63902;52.000;5.954;2023-05-02T00:47:20;101562.22;;;9.88;87.26
67931;BME280;63902;52.000;5.954;2023-05-02T00:48:23;101557.88;;;9.85;86.48
67931;BME280;63902;52.000;5.954;2023-05-02T00:49:24;101555.31;;;9.82;85.98
67931;BME280;63902;52.000;5.954;2023-05-02T00:50:25;101567.63;;;9.85;86.70
67931;BME280;63902;52.000;5.954;2023-05-02T00:51:26;101568.47;;;9.85;86.30
67931;BME280;63902;52.000;5.954;2023-05-02T00:52:27;101567.63;;;9.85;85.15
67931;BME280;63902;52.000;5.954;2023-05-02T00:53:27;101570.31;;;9.83;84.64
67931;BME280;63902;52.000;5.954;2023-05-02T00:54:29;101563.25;;;9.84;84.64
67931;BME280;63902;52.000;5.954;2023-05-02T00:55:30;101562.38;;;9.83;84.23
67931;BME280;63902;52.000;5.954;2023-05-02T00:56:31;101571.09;;;9.87;83.97
67931;BME280;63902;52.000;5.954;2023-05-02T00:57:32;101571.09;;;9.87;84.76
67931;BME280;63902;52.000;5.954;2023-05-02T00:58:33;101571.97;;;9.88;84.35
67931;BME280;63902;52.000;5.954;2023-05-02T00:59:34;101571.94;;;9.89;84.25
67931;BME280;63902;52.000;5.954;2023-05-02T01:00:43;101567.50;;;9.90;84.18
67931;BME280;63902;52.000;5.954;2023-05-02T01:01:49;101574.59;;;9.89;87.15
67931;BME280;63902;52.000;5.954;2023-05-02T01:03:04;101571.03;;;9.89;87.88
67931;BME280;63902;52.000;5.954;2023-05-02T01:04:22;101574.69;;;9.86;85.69
67931;BME280;63902;52.000;5.954;2023-05-02T01:05:27;101570.25;;;9.86;84.82
67931;BME280;63902;52.000;5.954;2023-05-02T01:06:47;101574.69;;;9.86;84.42
67931;BME280;63902;52.000;5.954;2023-05-02T01:08:07;101568.44;;;9.87;84.52
67931;BME280;63902;52.000;5.954;2023-05-02T01:09:18;101569.31;;;9.88;84.52
67931;BME280;63902;52.000;5.954;2023-05-02T01:10:27;101568.44;;;9.87;84.26
67931;BME280;63902;52.000;5.954;2023-05-02T01:11:35;101568.41;;;9.89;83.77
67931;BME280;63902;52.000;5.954;2023-05-02T01:12:41;101573.66;;;9.90;83.96
67931;BME280;63902;52.000;5.954;2023-05-02T01:13:44;101564.00;;;9.89;83.61
67931;BME280;63902;52.000;5.954;2023-05-02T01:14:49;101564.88;;;9.88;84.41
67931;BME280;63902;52.000;5.954;2023-05-02T01:15:52;101565.72;;;9.90;84.65
67931;BME280;63902;52.000;5.954;2023-05-02T01:16:55;101569.38;;;9.86;84.12
67931;BME280;63902;52.000;5.954;2023-05-02T01:17:59;101566.66;;;9.89;84.30
67931;BME280;63902;52.000;5.954;2023-05-02T01:19:02;101571.88;;;9.91;84.68
67931;BME280;63902;52.000;5.954;2023-05-02T01:20:10;101570.16;;;9.90;85.07
67931;BME280;63902;52.000;5.954;2023-05-02T01:21:12;101565.81;;;9.87;84.89
67931;BME280;63902;52.000;5.954;2023-05-02T01:22:14;101575.41;;;9.91;85.15
67931;BME280;63902;52.000;5.954;2023-05-02T01:23:22;101567.59;;;9.86;86.03
67931;BME280;63902;52.000;5.954;2023-05-02T01:24:29;101576.31;;;9.90;85.25
67931;BME280;63902;52.000;5.954;2023-05-02T01:25:38;101574.59;;;9.89;85.12
67931;BME280;63902;52.000;5.954;2023-05-02T01:26:45;101565.75;;;9.89;85.26
67931;BME280;63902;52.000;5.954;2023-05-02T01:27:56;101579.91;;;9.88;84.95
67931;BME280;63902;52.000;5.954;2023-05-02T01:29:04;101571.03;;;9.89;84.84
67931;BME280;63902;52.000;5.954;2023-05-02T01:30:06;101582.53;;;9.89;88.26
67931;BME280;63902;52.000;5.954;2023-05-02T01:31:07;101579.06;;;9.87;88.08
67931;BME280;63902;52.000;5.954;2023-05-02T01:32:08;101582.63;;;9.86;86.35
67931;BME280;63902;52.000;5.954;2023-05-02T01:33:12;101579.97;;;9.86;86.14
67931;BME280;63902;52.000;5.954;2023-05-02T01:34:15;101587.91;;;9.86;88.36
67931;BME280;63902;52.000;5.954;2023-05-02T01:35:18;101574.81;;;9.80;87.51
67931;BME280;63902;52.000;5.954;2023-05-02T01:36:20;101582.66;;;9.83;86.33
67931;BME280;63902;52.000;5.954;2023-05-02T01:37:23;101581.78;;;9.84;85.81
67931;BME280;63902;52.000;5.954;2023-05-02T01:38:25;101584.44;;;9.84;85.54
67931;BME280;63902;52.000;5.954;2023-05-02T01:39:27;101585.28;;;9.86;85.41
67931;BME280;63902;52.000;5.954;2023-05-02T01:40:28;101591.44;;;9.86;85.72
67931;BME280;63902;52.000;5.954;2023-05-02T01:41:31;101587.00;;;9.87;85.62
67931;BME280;63902;52.000;5.954;2023-05-02T01:42:35;101592.31;;;9.87;85.51
67931;BME280;63902;52.000;5.954;2023-05-02T01:43:37;101587.00;;;9.87;85.58
67931;BME280;63902;52.000;5.954;2023-05-02T01:44:40;101594.03;;;9.88;86.78
67931;BME280;63902;52.000;5.954;2023-05-02T01:45:43;101587.09;;;9.84;86.77
67931;BME280;63902;52.000;5.954;2023-05-02T01:46:47;101589.72;;;9.84;86.34
67931;BME280;63902;52.000;5.954;2023-05-02T01:47:48;101587.09;;;9.82;86.07
67931;BME280;63902;52.000;5.954;2023-05-02T01:48:51;101590.63;;;9.83;86.33
67931;BME280;63902;52.000;5.954;2023-05-02T01:49:52;101586.22;;;9.83;86.48
67931;BME280;63902;52.000;5.954;2023-05-02T01:50:53;101596.75;;;9.85;86.31
67931;BME280;63902;52.000;5.954;2023-05-02T01:51:55;101594.09;;;9.85;86.44
67931;BME280;63902;52.000;5.954;2023-05-02T01:52:57;101597.63;;;9.85;86.22
67931;BME280;63902;52.000;5.954;2023-05-02T01:53:58;101597.59;;;9.87;86.16
67931;BME280;63902;52.000;5.954;2023-05-02T01:55:01;101596.69;;;9.88;86.22
67931;BME280;63902;52.000;5.954;2023-05-02T01:56:02;101602.91;;;9.87;86.20
67931;BME280;63902;52.000;5.954;2023-05-02T01:57:05;101597.59;;;9.87;86.70
67931;BME280;63902;52.000;5.954;2023-05-02T01:58:06;101602.13;;;9.83;87.75
67931;BME280;63902;52.000;5.954;2023-05-02T01:59:08;101602.97;;;9.84;87.41
67931;BME280;63902;52.000;5.954;2023-05-02T02:00:12;101596.81;;;9.83;86.89
67931;BME280;63902;52.000;5.954;2023-05-02T02:01:15;101598.53;;;9.86;87.06
67931;BME280;63902;52.000;5.954;2023-05-02T02:02:17;101600.28;;;9.85;86.88
67931;BME280;63902;52.000;5.954;2023-05-02T02:03:18;101600.28;;;9.85;86.87
67931;BME280;63902;52.000;5.954;2023-05-02T02:04:20;101607.34;;;9.86;87.35
67931;BME280;63902;52.000;5.954;2023-05-02T02:05:23;101610.06;;;9.83;87.22
67931;BME280;63902;52.000;5.954;2023-05-02T02:06:25;101606.41;;;9.88;87.93
67931;BME280;63902;52.000;5.954;2023-05-02T02:07:25;101602.06;;;9.85;87.33
67931;BME280;63902;52.000;5.954;2023-05-02T02:08:26;101608.22;;;9.85;87.12
67931;BME280;63902;52.000;5.954;2023-05-02T02:09:27;101609.03;;;9.89;87.35
67931;BME280;63902;52.000;5.954;2023-05-02T02:10:28;101606.47;;;9.86;88.37
67931;BME280;63902;52.000;5.954;2023-05-02T02:11:34;101612.56;;;9.90;88.69
67931;BME280;63902;52.000;5.954;2023-05-02T02:12:38;101611.63;;;9.91;88.08
67931;BME280;63902;52.000;5.954;2023-05-02T02:13:44;101609.03;;;9.89;88.50
67931;BME280;63902;52.000;5.954;2023-05-02T02:14:51;101610.78;;;9.89;89.28
67931;BME280;63902;52.000;5.954;2023-05-02T02:15:58;101616.16;;;9.87;90.26
67931;BME280;63902;52.000;5.954;2023-05-02T02:17:01;101621.47;;;9.85;89.29
67931;BME280;63902;52.000;5.954;2023-05-02T02:18:08;101622.50;;;9.80;88.88
67931;BME280;63902;52.000;5.954;2023-05-02T02:19:12;101618.13;;;9.79;91.12
67931;BME280;63902;52.000;5.954;2023-05-02T02:20:14;101632.22;;;9.79;91.74
67931;BME280;63902;52.000;5.954;2023-05-02T02:21:17;101626.09;;;9.77;92.38
67931;BME280;63902;52.000;5.954;2023-05-02T02:22:20;101625.31;;;9.74;91.51
67931;BME280;63902;52.000;5.954;2023-05-02T02:23:24;101626.25;;;9.71;90.33
67931;BME280;63902;52.000;5.954;2023-05-02T02:24:26;101625.44;;;9.69;91.48
67931;BME280;63902;52.000;5.954;2023-05-02T02:25:28;101620.31;;;9.61;91.37
67931;BME280;63902;52.000;5.954;2023-05-02T02:26:29;101631.69;;;9.67;90.38
67931;BME280;63902;52.000;5.954;2023-05-02T02:27:29;101631.75;;;9.63;91.52
67931;BME280;63902;52.000;5.954;2023-05-02T02:28:30;101625.63;;;9.60;91.31
67931;BME280;63902;52.000;5.954;2023-05-02T02:29:31;101636.28;;;9.58;91.37
67931;BME280;63902;52.000;5.954;2023-05-02T02:30:32;101635.44;;;9.56;90.29
67931;BME280;63902;52.000;5.954;2023-05-02T02:31:34;101640.72;;;9.58;89.78
67931;BME280;63902;52.000;5.954;2023-05-02T02:32:35;101644.22;;;9.58;89.51
67931;BME280;63902;52.000;5.954;2023-05-02T02:33:35;101649.53;;;9.58;89.97
67931;BME280;63902;52.000;5.954;2023-05-02T02:34:36;101653.97;;;9.58;89.56
67931;BME280;63902;52.000;5.954;2023-05-02T02:35:40;101648.72;;;9.55;91.35
67931;BME280;63902;52.000;5.954;2023-05-02T02:36:44;101652.34;;;9.51;91.37
67931;BME280;63902;52.000;5.954;2023-05-02T02:37:51;101646.25;;;9.47;90.96
67931;BME280;63902;52.000;5.954;2023-05-02T02:39:02;101654.28;;;9.44;91.74
67931;BME280;63902;52.000;5.954;2023-05-02T02:40:08;101660.47;;;9.43;92.82
67931;BME280;63902;52.000;5.954;2023-05-02T02:41:14;101653.50;;;9.39;92.44
67931;BME280;63902;52.000;5.954;2023-05-02T02:42:22;101660.59;;;9.37;91.56
67931;BME280;63902;52.000;5.954;2023-05-02T02:43:28;101661.47;;;9.37;91.05
67931;BME280;63902;52.000;5.954;2023-05-02T02:44:40;101653.66;;;9.33;91.45
67931;BME280;63902;52.000;5.954;2023-05-02T02:45:49;101658.88;;;9.36;90.86
67931;BME280;63902;52.000;5.954;2023-05-02T02:47:00;101667.69;;;9.36;90.29
67931;BME280;63902;52.000;5.954;2023-05-02T02:48:12;101664.16;;;9.36;90.11
67931;BME280;63902;52.000;5.954;2023-05-02T02:49:26;101668.59;;;9.35;89.99
67931;BME280;63902;52.000;5.954;2023-05-02T02:50:31;101657.25;;;9.30;89.45
67931;BME280;63902;52.000;5.954;2023-05-02T02:51:38;101673.06;;;9.32;90.02
67931;BME280;63902;52.000;5.954;2023-05-02T02:52:52;101661.63;;;9.30;91.31
67931;BME280;63902;52.000;5.954;2023-05-02T02:53:59;101666.94;;;9.30;90.51
67931;BME280;63902;52.000;5.954;2023-05-02T02:55:08;101667.84;;;9.29;89.50
67931;BME280;63902;52.000;5.954;2023-05-02T02:56:14;101667.84;;;9.29;88.92
67931;BME280;63902;52.000;5.954;2023-05-02T02:57:17;101668.75;;;9.28;88.36
67931;BME280;63902;52.000;5.954;2023-05-02T02:58:30;101667.91;;;9.27;88.10
67931;BME280;63902;52.000;5.954;2023-05-02T02:59:34;101667.84;;;9.29;88.21
67931;BME280;63902;52.000;5.954;2023-05-02T03:00:37;101670.50;;;9.29;88.70
67931;BME280;63902;52.000;5.954;2023-05-02T03:01:41;101672.28;;;9.27;88.07
67931;BME280;63902;52.000;5.954;2023-05-02T03:02:45;101667.91;;;9.27;87.61
67931;BME280;63902;52.000;5.954;2023-05-02T03:03:47;101674.94;;;9.27;88.24
67931;BME280;63902;52.000;5.954;2023-05-02T03:04:50;101669.72;;;9.24;88.18
67931;BME280;63902;52.000;5.954;2023-05-02T03:05:52;101663.66;;;9.18;88.44
67931;BME280;63902;52.000;5.954;2023-05-02T03:06:53;101672.38;;;9.24;88.85
67931;BME280;63902;52.000;5.954;2023-05-02T03:07:54;101668.06;;;9.19;88.36
67931;BME280;63902;52.000;5.954;2023-05-02T03:08:54;101653.19;;;9.14;88.04
67931;BME280;63902;52.000;5.954;2023-05-02T03:09:55;101677.72;;;9.21;87.83
67931;BME280;63902;52.000;5.954;2023-05-02T03:10:55;101672.44;;;9.21;88.55
67931;BME280;63902;52.000;5.954;2023-05-02T03:11:56;101678.66;;;9.19;89.60
67931;BME280;63902;52.000;5.954;2023-05-02T03:12:56;101676.88;;;9.18;88.89
67931;BME280;63902;52.000;5.954;2023-05-02T03:13:57;101678.66;;;9.18;88.60
67931;BME280;63902;52.000;5.954;2023-05-02T03:15:04;101683.94;;;9.19;88.32
67931;BME280;63902;52.000;5.954;2023-05-02T03:16:23;101685.75;;;9.17;87.95
67931;BME280;63902;52.000;5.954;2023-05-02T03:17:28;101683.03;;;9.21;87.54
67931;BME280;63902;52.000;5.954;2023-05-02T03:18:30;101685.66;;;9.21;88.10
67931;BME280;63902;52.000;5.954;2023-05-02T03:19:31;101661.28;;;9.06;88.20
67931;BME280;63902;52.000;5.954;2023-05-02T03:20:31;101686.59;;;9.18;88.92
67931;BME280;63902;52.000;5.954;2023-05-02T03:21:32;101691.09;;;9.14;88.26
67931;BME280;63902;52.000;5.954;2023-05-02T03:22:32;101688.47;;;9.14;88.50
67931;BME280;63902;52.000;5.954;2023-05-02T03:23:33;101695.53;;;9.14;87.93
67931;BME280;63902;52.000;5.954;2023-05-02T03:24:33;101699.03;;;9.14;87.75
67931;BME280;63902;52.000;5.954;2023-05-02T03:25:34;101690.25;;;9.12;87.39
67931;BME280;63902;52.000;5.954;2023-05-02T03:26:34;101691.09;;;9.14;87.44
67931;BME280;63902;52.000;5.954;2023-05-02T03:27:34;101692.88;;;9.14;88.10
67931;BME280;63902;52.000;5.954;2023-05-02T03:28:35;101697.34;;;9.12;87.57
67931;BME280;63902;52.000;5.954;2023-05-02T03:29:35;101696.47;;;9.11;87.39
67931;BME280;63902;52.000;5.954;2023-05-02T03:30:36;101697.41;;;9.09;87.40
67931;BME280;63902;52.000;5.954;2023-05-02T03:31:36;101692.16;;;9.06;88.08
67931;BME280;63902;52.000;5.954;2023-05-02T03:32:37;101700.03;;;9.09;87.46
67931;BME280;63902;52.000;5.954;2023-05-02T03:33:38;101698.31;;;9.06;87.95
67931;BME280;63902;52.000;5.954;2023-05-02T03:34:39;101697.47;;;9.04;87.85
67931;BME280;63902;52.000;5.954;2023-05-02T03:35:39;101706.34;;;9.02;87.77
67931;BME280;63902;52.000;5.954;2023-05-02T03:36:40;101703.75;;;9.00;87.69
67931;BME280;63902;52.000;5.954;2023-05-02T03:37:40;101707.31;;;8.99;87.65
67931;BME280;63902;52.000;5.954;2023-05-02T03:38:41;101714.34;;;8.99;87.68
67931;BME280;63902;52.000;5.954;2023-05-02T03:39:41;101711.81;;;8.94;87.41
67931;BME280;63902;52.000;5.954;2023-05-02T03:40:43;101700.50;;;8.86;87.60
67931;BME280;63902;52.000;5.954;2023-05-02T03:41:43;101715.34;;;8.93;87.83
67931;BME280;63902;52.000;5.954;2023-05-02T03:42:44;101727.72;;;8.92;87.92
67931;BME280;63902;52.000;5.954;2023-05-02T03:43:44;101704.22;;;8.76;87.93
67931;BME280;63902;52.000;5.954;2023-05-02T03:44:45;101722.47;;;8.89;87.87
67931;BME280;63902;52.000;5.954;2023-05-02T03:45:45;101723.34;;;8.90;87.74
67931;BME280;63902;52.000;5.954;2023-05-02T03:46:46;101721.63;;;8.89;87.72
67931;BME280;63902;52.000;5.954;2023-05-02T03:47:46;101715.47;;;8.88;87.59
67931;BME280;63902;52.000;5.954;2023-05-02T03:48:48;101720.75;;;8.88;87.40
67931;BME280;63902;52.000;5.954;2023-05-02T03:49:48;101713.81;;;8.83;87.82
67931;BME280;63902;52.000;5.954;2023-05-02T03:50:49;101725.19;;;8.88;87.93
67931;BME280;63902;52.000;5.954;2023-05-02T03:51:50;101719.06;;;8.84;87.96
67931;BME280;63902;52.000;5.954;2023-05-02T03:52:50;101727.81;;;8.88;87.37
67931;BME280;63902;52.000;5.954;2023-05-02T03:53:51;101730.50;;;8.85;88.00
67931;BME280;63902;52.000;5.954;2023-05-02T03:54:51;101735.75;;;8.88;87.82
67931;BME280;63902;52.000;5.954;2023-05-02T03:55:52;101734.88;;;8.87;87.92
67931;BME280;63902;52.000;5.954;2023-05-02T03:56:52;101733.13;;;8.88;87.50
67931;BME280;63902;52.000;5.954;2023-05-02T03:57:53;101734.88;;;8.87;88.33
67931;BME280;63902;52.000;5.954;2023-05-02T03:58:53;101738.41;;;8.88;87.94
67931;BME280;63902;52.000;5.954;2023-05-02T03:59:54;101743.69;;;8.88;87.89
67931;BME280;63902;52.000;5.954;2023-05-02T04:00:54;101748.94;;;8.89;87.55
67931;BME280;63902;52.000;5.954;2023-05-02T04:01:54;101742.78;;;8.89;87.34
67931;BME280;63902;52.000;5.954;2023-05-02T04:02:55;101734.00;;;8.87;87.05
67931;BME280;63902;52.000;5.954;2023-05-02T04:03:57;101739.28;;;8.88;86.85
67931;BME280;63902;52.000;5.954;2023-05-02T04:04:57;101741.88;;;8.90;86.84
67931;BME280;63902;52.000;5.954;2023-05-02T04:05:58;101738.34;;;8.91;86.89
67931;BME280;63902;52.000;5.954;2023-05-02T04:06:58;101745.38;;;8.90;86.85
67931;BME280;63902;52.000;5.954;2023-05-02T04:08:00;101741.00;;;8.91;87.41
67931;BME280;63902;52.000;5.954;2023-05-02T04:09:00;101746.28;;;8.91;87.56
67931;BME280;63902;52.000;5.954;2023-05-02T04:10:01;101744.50;;;8.90;87.10
67931;BME280;63902;52.000;5.954;2023-05-02T04:11:01;101737.56;;;8.86;86.81
67931;BME280;63902;52.000;5.954;2023-05-02T04:12:02;101751.63;;;8.88;86.83
67931;BME280;63902;52.000;5.954;2023-05-02T04:13:02;101753.44;;;8.86;86.74
67931;BME280;63902;52.000;5.954;2023-05-02T04:14:03;101749.00;;;8.85;87.31
67931;BME280;63902;52.000;5.954;2023-05-02T04:15:04;101746.41;;;8.83;87.24
67931;BME280;63902;52.000;5.954;2023-05-02T04:16:05;101749.09;;;8.82;87.22
67931;BME280;63902;52.000;5.954;2023-05-02T04:17:05;101749.09;;;8.82;86.77
67931;BME280;63902;52.000;5.954;2023-05-02T04:18:06;101750.91;;;8.80;86.93
67931;BME280;63902;52.000;5.954;2023-05-02T04:19:08;101755.28;;;8.79;86.75
67931;BME280;63902;52.000;5.954;2023-05-02T04:20:09;101754.47;;;8.77;87.13
67931;BME280;63902;52.000;5.954;2023-05-02T04:21:10;101738.75;;;8.69;87.06
67931;BME280;63902;52.000;5.954;2023-05-02T04:22:10;101754.53;;;8.74;86.82
67931;BME280;63902;52.000;5.954;2023-05-02T04:23:11;101754.53;;;8.74;87.21
67931;BME280;63902;52.000;5.954;2023-05-02T04:24:12;101756.28;;;8.73;87.24
67931;BME280;63902;52.000;5.954;2023-05-02T04:25:13;101745.00;;;8.64;87.73
67931;BME280;63902;52.000;5.954;2023-05-02T04:26:13;101760.75;;;8.71;87.55
67931;BME280;63902;52.000;5.954;2023-05-02T04:27:14;101766.00;;;8.73;87.33
67931;BME280;63902;52.000;5.954;2023-05-02T04:28:14;101771.28;;;8.74;87.37
67931;BME280;63902;52.000;5.954;2023-05-02T04:29:15;101773.91;;;8.74;87.12
67931;BME280;63902;52.000;5.954;2023-05-02T04:30:15;101771.28;;;8.74;87.22
67931;BME280;63902;52.000;5.954;2023-05-02T04:31:16;101763.41;;;8.70;87.43
67931;BME280;63902;52.000;5.954;2023-05-02T04:32:16;101777.44;;;8.75;86.59
67931;BME280;63902;52.000;5.954;2023-05-02T04:33:17;101778.28;;;8.76;86.80
67931;BME280;63902;52.000;5.954;2023-05-02T04:34:19;101780.06;;;8.77;86.62
67931;BME280;63902;52.000;5.954;2023-05-02T04:35:19;101781.78;;;8.78;86.40
67931;BME280;63902;52.000;5.954;2023-05-02T04:36:20;101786.22;;;8.77;86.64
67931;BME280;63902;52.000;5.954;2023-05-02T04:37:20;101784.44;;;8.78;86.85
67931;BME280;63902;52.000;5.954;2023-05-02T04:38:21;101788.88;;;8.76;86.80
67931;BME280;63902;52.000;5.954;2023-05-02T04:39:22;101794.16;;;8.76;86.62
67931;BME280;63902;52.000;5.954;2023-05-02T04:40:22;101791.53;;;8.76;86.91
67931;BME280;63902;52.000;5.954;2023-05-02T04:41:23;101799.47;;;8.76;86.42
67931;BME280;63902;52.000;5.954;2023-05-02T04:42:23;101797.69;;;8.76;86.62
67931;BME280;63902;52.000;5.954;2023-05-02T04:43:24;101798.59;;;8.75;86.50
67931;BME280;63902;52.000;5.954;2023-05-02T04:44:24;101803.88;;;8.75;86.08
67931;BME280;63902;52.000;5.954;2023-05-02T04:45:25;101803.91;;;8.73;85.85
67931;BME280;63902;52.000;5.954;2023-05-02T04:46:25;101802.16;;;8.72;85.79
67931;BME280;63902;52.000;5.954;2023-05-02T04:47:26;101803.06;;;8.71;85.93
67931;BME280;63902;52.000;5.954;2023-05-02T04:48:26;101811.00;;;8.71;85.48
67931;BME280;63902;52.000;5.954;2023-05-02T04:49:28;101813.66;;;8.71;85.23
67931;BME280;63902;52.000;5.954;2023-05-02T04:50:28;101809.22;;;8.72;85.29
67931;BME280;63902;52.000;5.954;2023-05-02T04:51:29;101809.22;;;8.72;84.92
67931;BME280;63902;52.000;5.954;2023-05-02T04:52:29;101823.31;;;8.72;84.97
67931;BME280;63902;52.000;5.954;2023-05-02T04:53:30;101825.09;;;8.70;84.92
67931;BME280;63902;52.000;5.954;2023-05-02T04:54:31;101824.25;;;8.70;84.68
67931;BME280;63902;52.000;5.954;2023-05-02T04:55:32;101826.88;;;8.71;84.56
67931;BME280;63902;52.000;5.954;2023-05-02T04:56:32;101827.75;;;8.70;84.73
67931;BME280;63902;52.000;5.954;2023-05-02T04:57:32;101834.81;;;8.71;84.50
67931;BME280;63902;52.000;5.954;2023-05-02T04:58:33;101832.16;;;8.71;84.63
67931;BME280;63902;52.000;5.954;2023-05-02T04:59:33;101832.22;;;8.68;84.57
67931;BME280;63902;52.000;5.954;2023-05-02T05:00:34;101826.88;;;8.71;84.24
67931;BME280;63902;52.000;5.954;2023-05-02T05:01:34;101833.91;;;8.71;84.29
67931;BME280;63902;52.000;5.954;2023-05-02T05:02:35;101835.69;;;8.70;84.25
67931;BME280;63902;52.000;5.954;2023-05-02T05:03:35;101840.09;;;8.71;83.99
67931;BME280;63902;52.000;5.954;2023-05-02T05:04:37;101838.34;;;8.70;84.04
67931;BME280;63902;52.000;5.954;2023-05-02T05:05:38;101841.03;;;8.69;84.01
67931;BME280;63902;52.000;5.954;2023-05-02T05:06:38;101845.41;;;8.70;84.01
67931;BME280;63902;52.000;5.954;2023-05-02T05:07:38;101841.88;;;8.69;83.57
67931;BME280;63902;52.000;5.954;2023-05-02T05:08:39;101843.66;;;8.69;83.58
67931;BME280;63902;52.000;5.954;2023-05-02T05:09:39;101845.44;;;8.68;83.43
67931;BME280;63902;52.000;5.954;2023-05-02T05:10:40;101848.06;;;8.70;83.57
67931;BME280;63902;52.000;5.954;2023-05-02T05:11:40;101848.91;;;8.70;83.42
67931;BME280;63902;52.000;5.954;2023-05-02T05:12:41;101855.13;;;8.69;83.24
67931;BME280;63902;52.000;5.954;2023-05-02T05:13:41;101849.88;;;8.65;83.35
67931;BME280;63902;52.000;5.954;2023-05-02T05:14:42;101849.88;;;8.65;83.25
67931;BME280;63902;52.000;5.954;2023-05-02T05:15:42;101850.75;;;8.68;83.26
67931;BME280;63902;52.000;5.954;2023-05-02T05:16:43;101861.31;;;8.68;83.15
67931;BME280;63902;52.000;5.954;2023-05-02T05:17:43;101857.81;;;8.66;83.03
67931;BME280;63902;52.000;5.954;2023-05-02T05:18:44;101857.81;;;8.66;83.03
67931;BME280;63902;52.000;5.954;2023-05-02T05:19:45;101853.41;;;8.65;82.98
67931;BME280;63902;52.000;5.954;2023-05-02T05:20:46;101859.53;;;8.67;82.82
67931;BME280;63902;52.000;5.954;2023-05-02T05:21:46;101866.59;;;8.68;82.74
67931;BME280;63902;52.000;5.954;2023-05-02T05:22:47;101861.31;;;8.68;82.60
67931;BME280;63902;52.000;5.954;2023-05-02T05:23:47;101876.22;;;8.71;82.49
67931;BME280;63902;52.000;5.954;2023-05-02T05:24:51;101868.28;;;8.72;82.49
67931;BME280;63902;52.000;5.954;2023-05-02T05:25:52;101876.22;;;8.74;82.42
67931;BME280;63902;52.000;5.954;2023-05-02T05:26:53;101884.97;;;8.76;82.30
67931;BME280;63902;52.000;5.954;2023-05-02T05:27:53;101877.03;;;8.76;82.34
67931;BME280;63902;52.000;5.954;2023-05-02T05:28:54;101878.84;;;8.74;82.05
67931;BME280;63902;52.000;5.954;2023-05-02T05:29:54;101881.50;;;8.72;82.12